sensor_id;sensor_type;location;lat;lon;timestamp;pressure;altitude;pressure_sealevel;temperature;humidity
65211;BME280;51794;52.758;55.792;2022-08-21T00:00:10;98855.34;;;16.69;69.98
65211;BME280;51794;52.758;55.792;2022-08-21T00:02:45;98847.16;;;16.71;70.18
65211;BME280;51794;52.758;55.792;2022-08-21T00:05:12;98855.56;;;16.67;70.30
65211;BME280;51794;52.758;55.792;2022-08-21T00:07:38;98852.44;;;16.64;70.12
65211;BME280;51794;52.758;55.792;2022-08-21T00:10:05;98861.88;;;16.60;70.57
65211;BME280;51794;52.758;55.792;2022-08-21T00:12:31;98861.88;;;16.60;70.64
65211;BME280;51794;52.758;55.792;2022-08-21T00:14:58;98862.50;;;16.62;70.38
65211;BME280;51794;52.758;55.792;2022-08-21T00:17:24;98862.22;;;16.50;70.82
65211;BME280;51794;52.758;55.792;2022-08-21T00:19:50;98856.84;;;16.50;70.46
65211;BME280;51794;52.758;55.792;2022-08-21T00:22:17;98862.25;;;16.57;70.76
65211;BME280;51794;52.758;55.792;2022-08-21T00:24:43;98864.81;;;16.65;70.25
65211;BME280;51794;52.758;55.792;2022-08-21T00:27:09;98862.22;;;16.50;70.90
65211;BME280;51794;52.758;55.792;2022-08-21T00:29:35;98859.34;;;16.52;70.96
65211;BME280;51794;52.758;55.792;2022-08-21T00:32:00;98865.53;;;16.52;70.97
65211;BME280;51794;52.758;55.792;2022-08-21T00:34:26;98863.03;;;16.51;71.05
65211;BME280;51794;52.758;55.792;2022-08-21T00:36:52;98857.81;;;16.42;71.44
65211;BME280;51794;52.758;55.792;2022-08-21T00:39:18;98863.75;;;16.38;71.42
65211;BME280;51794;52.758;55.792;2022-08-21T00:41:44;98868.28;;;16.37;71.76
65211;BME280;51794;52.758;55.792;2022-08-21T00:44:12;98875.97;;;16.47;71.61
65211;BME280;51794;52.758;55.792;2022-08-21T00:46:41;98859.28;;;16.45;71.78
65211;BME280;51794;52.758;55.792;2022-08-21T00:49:08;98872.22;;;16.41;71.68
65211;BME280;51794;52.758;55.792;2022-08-21T00:51:39;98865.34;;;16.32;71.87
65211;BME280;51794;52.758;55.792;2022-08-21T00:54:07;98863.75;;;16.38;71.83
65211;BME280;51794;52.758;55.792;2022-08-21T00:56:35;98864.19;;;16.41;71.49
65211;BME280;51794;52.758;55.792;2022-08-21T00:59:02;98873.63;;;16.37;72.17
65211;BME280;51794;52.758;55.792;2022-08-21T01:01:29;98871.53;;;16.33;72.36
65211;BME280;51794;52.758;55.792;2022-08-21T01:03:55;98882.66;;;16.36;72.14
65211;BME280;51794;52.758;55.792;2022-08-21T01:06:21;98870.97;;;16.37;72.31
65211;BME280;51794;52.758;55.792;2022-08-21T01:08:47;98876.03;;;16.32;72.50
65211;BME280;51794;52.758;55.792;2022-08-21T01:11:14;98877.69;;;16.33;72.63
65211;BME280;51794;52.758;55.792;2022-08-21T01:13:42;98876.94;;;16.39;72.43
65211;BME280;51794;52.758;55.792;2022-08-21T01:16:15;98881.41;;;16.32;72.44
65211;BME280;51794;52.758;55.792;2022-08-21T01:18:43;98880.78;;;16.52;71.76
65211;BME280;51794;52.758;55.792;2022-08-21T01:21:22;98875.03;;;16.55;71.70
65211;BME280;51794;52.758;55.792;2022-08-21T01:23:52;98882.53;;;16.44;71.92
65211;BME280;51794;52.758;55.792;2022-08-21T01:26:25;98877.59;;;16.69;71.41
65211;BME280;51794;52.758;55.792;2022-08-21T01:29:01;98880.59;;;17.44;68.58
65211;BME280;51794;52.758;55.792;2022-08-21T01:31:29;98893.84;;;17.52;67.64
65211;BME280;51794;52.758;55.792;2022-08-21T01:33:57;98885.97;;;17.51;68.01
65211;BME280;51794;52.758;55.792;2022-08-21T01:36:24;98889.41;;;17.73;67.46
65211;BME280;51794;52.758;55.792;2022-08-21T01:38:50;98884.28;;;18.92;63.35
65211;BME280;51794;52.758;55.792;2022-08-21T01:41:16;98884.84;;;19.21;61.76
65211;BME280;51794;52.758;55.792;2022-08-21T01:43:43;98882.13;;;19.93;59.75
65211;BME280;51794;52.758;55.792;2022-08-21T01:46:10;98894.09;;;19.45;60.99
65211;BME280;51794;52.758;55.792;2022-08-21T01:48:37;98893.97;;;19.85;60.01
65211;BME280;51794;52.758;55.792;2022-08-21T01:51:04;98886.53;;;20.82;57.37
65211;BME280;51794;52.758;55.792;2022-08-21T01:53:31;98886.25;;;20.90;56.87
65211;BME280;51794;52.758;55.792;2022-08-21T01:55:59;98884.94;;;21.18;56.07
65211;BME280;51794;52.758;55.792;2022-08-21T01:58:25;98889.84;;;21.02;55.99
65211;BME280;51794;52.758;55.792;2022-08-21T02:00:51;98895.50;;;21.19;55.62
65211;BME280;51794;52.758;55.792;2022-08-21T02:03:17;98888.09;;;20.33;57.83
65211;BME280;51794;52.758;55.792;2022-08-21T02:05:43;98894.81;;;21.06;56.23
65211;BME280;51794;52.758;55.792;2022-08-21T02:08:09;98899.56;;;21.84;53.89
65211;BME280;51794;52.758;55.792;2022-08-21T02:10:35;98904.03;;;22.92;51.03
65211;BME280;51794;52.758;55.792;2022-08-21T02:13:01;98900.72;;;21.14;55.49
65211;BME280;51794;52.758;55.792;2022-08-21T02:15:28;98903.28;;;21.53;54.38
65211;BME280;51794;52.758;55.792;2022-08-21T02:17:57;98895.34;;;22.06;53.34
65211;BME280;51794;52.758;55.792;2022-08-21T02:23:21;98902.66;;;22.36;52.69
65211;BME280;51794;52.758;55.792;2022-08-21T02:25:47;98900.19;;;23.59;49.84
65211;BME280;51794;52.758;55.792;2022-08-21T02:28:14;98904.97;;;24.09;48.15
65211;BME280;51794;52.758;55.792;2022-08-21T02:30:46;98895.91;;;24.60;46.79
65211;BME280;51794;52.758;55.792;2022-08-21T02:33:13;98907.22;;;23.60;48.59
65211;BME280;51794;52.758;55.792;2022-08-21T02:35:41;98902.97;;;25.29;45.18
65211;BME280;51794;52.758;55.792;2022-08-21T02:38:15;98902.41;;;24.31;46.88
65211;BME280;51794;52.758;55.792;2022-08-21T02:40:43;98903.63;;;25.02;45.48
65211;BME280;51794;52.758;55.792;2022-08-21T02:43:10;98911.25;;;24.55;46.60
65211;BME280;51794;52.758;55.792;2022-08-21T02:45:37;98907.91;;;24.98;45.52
65211;BME280;51794;52.758;55.792;2022-08-21T02:48:06;98900.81;;;25.70;44.40
65211;BME280;51794;52.758;55.792;2022-08-21T02:50:40;98901.03;;;25.46;44.64
65211;BME280;51794;52.758;55.792;2022-08-21T02:53:07;98903.38;;;26.26;43.34
65211;BME280;51794;52.758;55.792;2022-08-21T02:55:35;98907.31;;;26.67;42.42
65211;BME280;51794;52.758;55.792;2022-08-21T02:58:03;98895.56;;;26.34;43.52
65211;BME280;51794;52.758;55.792;2022-08-21T03:00:31;98903.50;;;26.63;42.27
65211;BME280;51794;52.758;55.792;2022-08-21T03:02:58;98896.91;;;26.91;41.74
65211;BME280;51794;52.758;55.792;2022-08-21T03:05:26;98896.78;;;27.08;42.16
65211;BME280;51794;52.758;55.792;2022-08-21T03:07:53;98906.66;;;27.19;41.31
65211;BME280;51794;52.758;55.792;2022-08-21T03:10:21;98910.25;;;26.60;43.22
65211;BME280;51794;52.758;55.792;2022-08-21T03:12:47;98913.22;;;26.59;43.09
65211;BME280;51794;52.758;55.792;2022-08-21T03:15:16;98923.41;;;27.06;41.84
65211;BME280;51794;52.758;55.792;2022-08-21T03:17:43;98906.94;;;28.84;39.03
65211;BME280;51794;52.758;55.792;2022-08-21T03:20:10;98922.22;;;30.22;36.23
65211;BME280;51794;52.758;55.792;2022-08-21T03:22:36;98921.06;;;28.30;39.83
65211;BME280;51794;52.758;55.792;2022-08-21T03:25:03;98915.13;;;29.25;38.13
65211;BME280;51794;52.758;55.792;2022-08-21T03:27:29;98911.72;;;29.84;37.14
65211;BME280;51794;52.758;55.792;2022-08-21T03:29:57;98928.34;;;28.09;40.22
65211;BME280;51794;52.758;55.792;2022-08-21T03:32:23;98918.34;;;28.35;40.13
65211;BME280;51794;52.758;55.792;2022-08-21T03:34:49;98918.94;;;30.59;36.38
65211;BME280;51794;52.758;55.792;2022-08-21T03:37:15;98913.75;;;29.33;38.32
65211;BME280;51794;52.758;55.792;2022-08-21T03:39:41;98923.56;;;30.24;36.92
65211;BME280;51794;52.758;55.792;2022-08-21T03:42:08;98925.34;;;29.90;37.35
65211;BME280;51794;52.758;55.792;2022-08-21T03:44:34;98928.25;;;27.78;41.17
65211;BME280;51794;52.758;55.792;2022-08-21T03:47:01;98921.88;;;28.25;40.90
65211;BME280;51794;52.758;55.792;2022-08-21T03:49:27;98936.00;;;29.91;37.57
65211;BME280;51794;52.758;55.792;2022-08-21T03:51:53;98934.47;;;29.39;38.46
65211;BME280;51794;52.758;55.792;2022-08-21T03:54:19;98942.22;;;30.02;37.50
65211;BME280;51794;52.758;55.792;2022-08-21T03:56:46;98950.78;;;28.32;40.50
65211;BME280;51794;52.758;55.792;2022-08-21T03:59:12;98951.84;;;28.20;40.15
65211;BME280;51794;52.758;55.792;2022-08-21T04:01:38;98943.53;;;28.68;39.32
65211;BME280;51794;52.758;55.792;2022-08-21T04:04:05;98943.25;;;28.95;39.57
65211;BME280;51794;52.758;55.792;2022-08-21T04:06:32;98956.78;;;27.28;42.40
65211;BME280;51794;52.758;55.792;2022-08-21T04:08:58;98947.78;;;25.70;46.10
65211;BME280;51794;52.758;55.792;2022-08-21T04:11:24;98950.28;;;26.97;43.87
65211;BME280;51794;52.758;55.792;2022-08-21T04:13:50;98946.47;;;26.93;43.16
65211;BME280;51794;52.758;55.792;2022-08-21T04:16:16;98950.34;;;28.96;39.67
65211;BME280;51794;52.758;55.792;2022-08-21T04:18:42;98941.00;;;30.34;36.96
65211;BME280;51794;52.758;55.792;2022-08-21T04:21:10;98949.78;;;28.79;39.89
65211;BME280;51794;52.758;55.792;2022-08-21T04:23:37;98954.97;;;27.81;41.91
65211;BME280;51794;52.758;55.792;2022-08-21T04:26:03;98949.25;;;28.87;40.06
65211;BME280;51794;52.758;55.792;2022-08-21T04:28:29;98956.88;;;29.41;39.27
65211;BME280;51794;52.758;55.792;2022-08-21T04:30:56;98956.97;;;30.66;36.81
65211;BME280;51794;52.758;55.792;2022-08-21T04:33:22;98956.53;;;28.35;41.01
65211;BME280;51794;52.758;55.792;2022-08-21T04:35:49;98950.13;;;31.85;34.79
65211;BME280;51794;52.758;55.792;2022-08-21T04:38:15;98951.31;;;31.50;35.46
65211;BME280;51794;52.758;55.792;2022-08-21T04:40:42;98947.59;;;31.64;35.10
65211;BME280;51794;52.758;55.792;2022-08-21T04:43:09;98951.41;;;32.36;33.63
65211;BME280;51794;52.758;55.792;2022-08-21T04:45:38;98953.72;;;31.27;35.13
65211;BME280;51794;52.758;55.792;2022-08-21T04:48:06;98951.50;;;32.06;34.64
65211;BME280;51794;52.758;55.792;2022-08-21T04:50:52;98949.25;;;31.07;35.92
65211;BME280;51794;52.758;55.792;2022-08-21T04:53:31;98948.13;;;34.47;30.99
65211;BME280;51794;52.758;55.792;2022-08-21T04:56:01;98955.59;;;31.85;34.27
65211;BME280;51794;52.758;55.792;2022-08-21T04:58:28;98952.03;;;35.05;29.47
65211;BME280;51794;52.758;55.792;2022-08-21T05:00:56;98944.66;;;33.04;32.62
65211;BME280;51794;52.758;55.792;2022-08-21T05:03:23;98943.38;;;32.96;33.20
65211;BME280;51794;52.758;55.792;2022-08-21T05:05:50;98941.31;;;31.88;34.44
65211;BME280;51794;52.758;55.792;2022-08-21T05:08:18;98944.59;;;32.52;33.40
65211;BME280;51794;52.758;55.792;2022-08-21T05:10:45;98936.69;;;35.13;29.42
65211;BME280;51794;52.758;55.792;2022-08-21T05:13:12;98944.47;;;33.14;32.33
65211;BME280;51794;52.758;55.792;2022-08-21T05:15:39;98938.78;;;30.41;36.93
65211;BME280;51794;52.758;55.792;2022-08-21T05:18:06;98930.06;;;32.51;33.39
65211;BME280;51794;52.758;55.792;2022-08-21T05:20:33;98932.31;;;31.05;35.59
65211;BME280;51794;52.758;55.792;2022-08-21T05:23:05;98936.09;;;31.09;35.82
65211;BME280;51794;52.758;55.792;2022-08-21T05:25:33;98940.53;;;31.05;35.90
65211;BME280;51794;52.758;55.792;2022-08-21T05:27:59;98932.00;;;31.07;35.50
65211;BME280;51794;52.758;55.792;2022-08-21T05:30:25;98914.38;;;29.95;38.08
65211;BME280;51794;52.758;55.792;2022-08-21T05:32:57;98926.59;;;26.60;44.40
65211;BME280;51794;52.758;55.792;2022-08-21T05:35:24;98920.00;;;26.88;44.48
65211;BME280;51794;52.758;55.792;2022-08-21T05:37:50;98921.78;;;27.05;43.67
65211;BME280;51794;52.758;55.792;2022-08-21T05:40:35;98916.81;;;26.64;44.36
65211;BME280;51794;52.758;55.792;2022-08-21T05:43:01;98918.28;;;25.57;46.91
65211;BME280;51794;52.758;55.792;2022-08-21T05:45:31;98916.41;;;26.78;44.58
65211;BME280;51794;52.758;55.792;2022-08-21T05:48:04;98910.50;;;27.23;43.94
65211;BME280;51794;52.758;55.792;2022-08-21T05:50:30;98912.00;;;27.09;44.31
65211;BME280;51794;52.758;55.792;2022-08-21T05:52:56;98905.47;;;27.05;43.74
65211;BME280;51794;52.758;55.792;2022-08-21T05:55:22;98910.72;;;27.59;42.85
65211;BME280;51794;52.758;55.792;2022-08-21T05:57:48;98903.41;;;27.22;43.37
65211;BME280;51794;52.758;55.792;2022-08-21T06:00:15;98906.06;;;27.59;43.12
65211;BME280;51794;52.758;55.792;2022-08-21T06:02:42;98910.88;;;27.90;42.45
65211;BME280;51794;52.758;55.792;2022-08-21T06:05:08;98898.00;;;26.58;44.40
65211;BME280;51794;52.758;55.792;2022-08-21T06:07:34;98892.06;;;27.41;43.12
65211;BME280;51794;52.758;55.792;2022-08-21T06:10:00;98893.19;;;27.07;43.79
65211;BME280;51794;52.758;55.792;2022-08-21T06:12:26;98908.56;;;27.66;42.92
65211;BME280;51794;52.758;55.792;2022-08-21T06:14:52;98906.75;;;26.65;44.44
65211;BME280;51794;52.758;55.792;2022-08-21T06:17:18;98902.47;;;26.47;44.53
65211;BME280;51794;52.758;55.792;2022-08-21T06:19:44;98898.72;;;25.77;45.91
65211;BME280;51794;52.758;55.792;2022-08-21T06:22:10;98891.81;;;26.40;44.81
65211;BME280;51794;52.758;55.792;2022-08-21T06:24:36;98896.91;;;26.59;44.00
65211;BME280;51794;52.758;55.792;2022-08-21T06:27:06;98886.16;;;27.11;43.25
65211;BME280;51794;52.758;55.792;2022-08-21T06:29:34;98882.09;;;26.72;43.73
65211;BME280;51794;52.758;55.792;2022-08-21T06:32:01;98887.00;;;27.12;43.37
65211;BME280;51794;52.758;55.792;2022-08-21T06:34:27;98886.41;;;27.10;43.72
65211;BME280;51794;52.758;55.792;2022-08-21T06:36:53;98893.78;;;26.18;45.15
65211;BME280;51794;52.758;55.792;2022-08-21T06:39:19;98884.34;;;26.53;43.97
65211;BME280;51794;52.758;55.792;2022-08-21T06:41:45;98881.22;;;26.66;43.69
65211;BME280;51794;52.758;55.792;2022-08-21T06:44:11;98882.09;;;26.44;44.43
65211;BME280;51794;52.758;55.792;2022-08-21T06:46:37;98881.50;;;27.02;43.77
65211;BME280;51794;52.758;55.792;2022-08-21T06:49:03;98884.53;;;26.46;44.65
65211;BME280;51794;52.758;55.792;2022-08-21T06:51:29;98880.41;;;26.71;44.33
65211;BME280;51794;52.758;55.792;2022-08-21T06:53:55;98882.84;;;26.40;44.97
65211;BME280;51794;52.758;55.792;2022-08-21T06:56:21;98876.72;;;26.50;44.70
65211;BME280;51794;52.758;55.792;2022-08-21T06:58:47;98865.63;;;26.94;43.67
65211;BME280;51794;52.758;55.792;2022-08-21T07:01:13;98866.16;;;26.90;43.63
65211;BME280;51794;52.758;55.792;2022-08-21T07:03:41;98871.81;;;25.97;44.96
65211;BME280;51794;52.758;55.792;2022-08-21T07:06:09;98862.88;;;26.24;44.96
65211;BME280;51794;52.758;55.792;2022-08-21T07:08:36;98866.97;;;27.28;42.97
65211;BME280;51794;52.758;55.792;2022-08-21T07:11:12;98862.50;;;27.12;43.11
65211;BME280;51794;52.758;55.792;2022-08-21T07:13:39;98871.44;;;27.07;42.96
65211;BME280;51794;52.758;55.792;2022-08-21T07:16:06;98861.78;;;26.25;44.73
65211;BME280;51794;52.758;55.792;2022-08-21T07:18:32;98867.78;;;26.54;44.10
65211;BME280;51794;52.758;55.792;2022-08-21T07:20:58;98859.97;;;27.00;43.69
65211;BME280;51794;52.758;55.792;2022-08-21T07:23:31;98857.84;;;27.12;42.47
65211;BME280;51794;52.758;55.792;2022-08-21T07:25:58;98864.75;;;25.96;44.33
65211;BME280;51794;52.758;55.792;2022-08-21T07:28:26;98853.63;;;26.25;44.24
65211;BME280;51794;52.758;55.792;2022-08-21T07:30:55;98855.97;;;26.16;43.68
65211;BME280;51794;52.758;55.792;2022-08-21T07:33:22;98850.38;;;26.92;42.83
65211;BME280;51794;52.758;55.792;2022-08-21T07:35:49;98847.56;;;26.77;42.01
65211;BME280;51794;52.758;55.792;2022-08-21T07:38:15;98839.19;;;26.89;42.31
65211;BME280;51794;52.758;55.792;2022-08-21T07:40:41;98838.94;;;26.53;41.84
65211;BME280;51794;52.758;55.792;2022-08-21T07:43:07;98826.28;;;26.37;42.48
65211;BME280;51794;52.758;55.792;2022-08-21T07:45:33;98842.78;;;26.57;42.37
65211;BME280;51794;52.758;55.792;2022-08-21T07:47:59;98845.25;;;26.32;43.10
65211;BME280;51794;52.758;55.792;2022-08-21T07:50:25;98833.19;;;26.82;42.75
65211;BME280;51794;52.758;55.792;2022-08-21T07:52:51;98838.13;;;27.32;41.85
65211;BME280;51794;52.758;55.792;2022-08-21T07:55:19;98834.53;;;26.79;42.12
65211;BME280;51794;52.758;55.792;2022-08-21T07:57:46;98827.31;;;27.00;41.37
65211;BME280;51794;52.758;55.792;2022-08-21T08:00:16;98820.25;;;26.99;41.27
65211;BME280;51794;52.758;55.792;2022-08-21T08:02:48;98830.91;;;27.64;41.18
65211;BME280;51794;52.758;55.792;2022-08-21T08:05:19;98813.31;;;27.97;40.22
65211;BME280;51794;52.758;55.792;2022-08-21T08:07:45;98827.47;;;27.21;41.05
65211;BME280;51794;52.758;55.792;2022-08-21T08:10:11;98813.19;;;27.56;40.42
65211;BME280;51794;52.758;55.792;2022-08-21T08:12:39;98815.25;;;27.33;41.29
65211;BME280;51794;52.758;55.792;2022-08-21T08:15:09;98840.34;;;27.35;41.55
65211;BME280;51794;52.758;55.792;2022-08-21T08:17:35;98836.66;;;26.77;42.30
65211;BME280;51794;52.758;55.792;2022-08-21T08:20:01;98813.03;;;27.25;41.81
65211;BME280;51794;52.758;55.792;2022-08-21T08:22:28;98802.28;;;27.51;41.30
65211;BME280;51794;52.758;55.792;2022-08-21T08:24:54;98805.53;;;27.48;41.37
65211;BME280;51794;52.758;55.792;2022-08-21T08:27:21;98809.13;;;27.74;41.18
65211;BME280;51794;52.758;55.792;2022-08-21T08:29:48;98801.56;;;27.91;40.89
65211;BME280;51794;52.758;55.792;2022-08-21T08:32:14;98809.25;;;27.26;42.33
65211;BME280;51794;52.758;55.792;2022-08-21T08:34:40;98814.72;;;26.89;42.59
65211;BME280;51794;52.758;55.792;2022-08-21T08:37:08;98809.94;;;27.06;42.83
65211;BME280;51794;52.758;55.792;2022-08-21T08:39:34;98803.09;;;27.51;42.22
65211;BME280;51794;52.758;55.792;2022-08-21T08:44:46;98789.38;;;28.35;40.47
65211;BME280;51794;52.758;55.792;2022-08-21T08:47:15;98785.81;;;28.14;40.91
65211;BME280;51794;52.758;55.792;2022-08-21T08:52:22;98790.53;;;27.45;42.15
65211;BME280;51794;52.758;55.792;2022-08-21T08:55:05;98777.31;;;27.95;41.26
65211;BME280;51794;52.758;55.792;2022-08-21T08:57:32;98784.81;;;29.36;38.86
65211;BME280;51794;52.758;55.792;2022-08-21T09:00:03;98790.72;;;28.37;39.98
65211;BME280;51794;52.758;55.792;2022-08-21T09:02:29;98785.00;;;28.59;39.77
65211;BME280;51794;52.758;55.792;2022-08-21T09:04:56;98758.75;;;27.76;41.11
65211;BME280;51794;52.758;55.792;2022-08-21T09:07:46;98773.72;;;27.69;42.17
65211;BME280;51794;52.758;55.792;2022-08-21T09:13:42;98776.72;;;27.62;41.51
65211;BME280;51794;52.758;55.792;2022-08-21T09:24:40;98760.72;;;28.63;39.61
65211;BME280;51794;52.758;55.792;2022-08-21T09:27:14;98775.72;;;27.99;39.83
65211;BME280;51794;52.758;55.792;2022-08-21T09:29:46;98755.00;;;28.03;39.11
65211;BME280;51794;52.758;55.792;2022-08-21T09:32:30;98754.44;;;28.67;38.28
65211;BME280;51794;52.758;55.792;2022-08-21T09:35:11;98752.84;;;30.30;35.63
65211;BME280;51794;52.758;55.792;2022-08-21T09:37:58;98739.91;;;29.62;36.71
65211;BME280;51794;52.758;55.792;2022-08-21T09:40:41;98746.53;;;30.59;35.13
65211;BME280;51794;52.758;55.792;2022-08-21T09:45:37;98737.56;;;28.45;38.59
65211;BME280;51794;52.758;55.792;2022-08-21T09:48:21;98733.22;;;28.13;38.80
65211;BME280;51794;52.758;55.792;2022-08-21T09:50:48;98747.84;;;27.76;39.80
65211;BME280;51794;52.758;55.792;2022-08-21T09:53:20;98751.91;;;27.74;39.70
65211;BME280;51794;52.758;55.792;2022-08-21T09:55:52;98744.63;;;27.95;39.67
65211;BME280;51794;52.758;55.792;2022-08-21T09:58:38;98748.59;;;27.41;40.49
65211;BME280;51794;52.758;55.792;2022-08-21T10:01:06;98719.50;;;27.62;40.02
65211;BME280;51794;52.758;55.792;2022-08-21T10:03:33;98732.09;;;27.89;39.29
65211;BME280;51794;52.758;55.792;2022-08-21T10:08:27;98712.34;;;29.04;36.90
65211;BME280;51794;52.758;55.792;2022-08-21T10:11:08;98711.91;;;29.81;36.10
65211;BME280;51794;52.758;55.792;2022-08-21T10:13:59;98710.47;;;29.49;37.16
65211;BME280;51794;52.758;55.792;2022-08-21T10:19:16;98718.50;;;28.04;38.57
65211;BME280;51794;52.758;55.792;2022-08-21T10:21:58;98712.69;;;27.59;39.57
65211;BME280;51794;52.758;55.792;2022-08-21T10:24:32;98723.03;;;27.57;39.49
65211;BME280;51794;52.758;55.792;2022-08-21T10:35:13;98695.59;;;29.21;36.61
65211;BME280;51794;52.758;55.792;2022-08-21T10:37:56;98710.84;;;29.27;36.40
65211;BME280;51794;52.758;55.792;2022-08-21T10:40:34;98697.47;;;29.26;35.67
65211;BME280;51794;52.758;55.792;2022-08-21T10:51:13;98691.41;;;30.18;34.47
65211;BME280;51794;52.758;55.792;2022-08-21T10:53:51;98704.06;;;29.20;37.10
65211;BME280;51794;52.758;55.792;2022-08-21T10:56:28;98705.66;;;28.51;37.96
65211;BME280;51794;52.758;55.792;2022-08-21T11:01:44;98705.94;;;28.29;37.89
65211;BME280;51794;52.758;55.792;2022-08-21T11:04:20;98698.78;;;28.68;36.90
65211;BME280;51794;52.758;55.792;2022-08-21T11:06:53;98691.34;;;28.89;36.51
65211;BME280;51794;52.758;55.792;2022-08-21T11:09:25;98692.06;;;29.70;35.01
65211;BME280;51794;52.758;55.792;2022-08-21T11:11:57;98699.41;;;29.20;36.21
65211;BME280;51794;52.758;55.792;2022-08-21T11:14:48;98707.00;;;28.53;37.89
65211;BME280;51794;52.758;55.792;2022-08-21T11:17:22;98708.94;;;28.53;38.23
65211;BME280;51794;52.758;55.792;2022-08-21T11:19:54;98708.38;;;27.99;39.24
65211;BME280;51794;52.758;55.792;2022-08-21T11:25:19;98706.47;;;27.79;39.75
65211;BME280;51794;52.758;55.792;2022-08-21T11:27:54;98702.06;;;27.58;39.91
65211;BME280;51794;52.758;55.792;2022-08-21T11:30:26;98692.84;;;27.79;39.88
65211;BME280;51794;52.758;55.792;2022-08-21T11:35:39;98697.72;;;27.62;40.31
65211;BME280;51794;52.758;55.792;2022-08-21T11:38:26;98689.22;;;27.33;40.65
65211;BME280;51794;52.758;55.792;2022-08-21T11:41:25;98703.41;;;27.61;39.83
65211;BME280;51794;52.758;55.792;2022-08-21T11:44:10;98665.84;;;27.73;38.60
65211;BME280;51794;52.758;55.792;2022-08-21T11:47:19;98691.19;;;28.24;38.42
65211;BME280;51794;52.758;55.792;2022-08-21T11:52:30;98680.00;;;28.52;37.45
65211;BME280;51794;52.758;55.792;2022-08-21T11:55:26;98692.00;;;29.31;35.84
65211;BME280;51794;52.758;55.792;2022-08-21T11:58:19;98680.50;;;28.64;36.19
65211;BME280;51794;52.758;55.792;2022-08-21T12:01:00;98674.78;;;28.60;37.13
65211;BME280;51794;52.758;55.792;2022-08-21T12:03:33;98675.94;;;30.03;35.10
65211;BME280;51794;52.758;55.792;2022-08-21T12:06:07;98684.13;;;28.44;37.87
65211;BME280;51794;52.758;55.792;2022-08-21T12:08:40;98674.28;;;28.48;38.27
65211;BME280;51794;52.758;55.792;2022-08-21T12:11:23;98664.47;;;28.42;38.01
65211;BME280;51794;52.758;55.792;2022-08-21T12:14:10;98661.63;;;28.78;37.78
65211;BME280;51794;52.758;55.792;2022-08-21T12:16:38;98620.66;;;27.92;38.89
65211;BME280;51794;52.758;55.792;2022-08-21T12:27:29;98675.66;;;28.15;36.53
65211;BME280;51794;52.758;55.792;2022-08-21T12:29:59;98665.06;;;27.93;37.78
65211;BME280;51794;52.758;55.792;2022-08-21T12:32:41;98686.84;;;27.77;39.58
65211;BME280;51794;52.758;55.792;2022-08-21T12:35:21;98678.06;;;27.40;40.72
65211;BME280;51794;52.758;55.792;2022-08-21T12:40:25;98678.06;;;27.40;40.36
65211;BME280;51794;52.758;55.792;2022-08-21T12:42:52;98656.28;;;27.40;39.64
65211;BME280;51794;52.758;55.792;2022-08-21T12:45:31;98670.72;;;27.35;39.10
65211;BME280;51794;52.758;55.792;2022-08-21T12:48:04;98661.75;;;27.75;38.26
65211;BME280;51794;52.758;55.792;2022-08-21T12:50:38;98682.19;;;27.57;38.59
65211;BME280;51794;52.758;55.792;2022-08-21T12:53:15;98658.81;;;27.92;38.30
65211;BME280;51794;52.758;55.792;2022-08-21T12:55:47;98658.53;;;27.78;37.99
65211;BME280;51794;52.758;55.792;2022-08-21T12:58:21;98657.97;;;27.81;37.46
65211;BME280;51794;52.758;55.792;2022-08-21T13:01:06;98647.34;;;27.95;36.93
65211;BME280;51794;52.758;55.792;2022-08-21T13:03:35;98643.00;;;27.79;36.64
65211;BME280;51794;52.758;55.792;2022-08-21T13:06:06;98654.69;;;28.25;36.80
65211;BME280;51794;52.758;55.792;2022-08-21T13:08:35;98662.84;;;27.69;39.08
65211;BME280;51794;52.758;55.792;2022-08-21T13:11:05;98663.94;;;27.53;40.42
65211;BME280;51794;52.758;55.792;2022-08-21T13:13:33;98664.41;;;27.24;41.11
65211;BME280;51794;52.758;55.792;2022-08-21T13:16:02;98653.72;;;27.07;40.96
65211;BME280;51794;52.758;55.792;2022-08-21T13:18:31;98658.47;;;27.43;40.25
65211;BME280;51794;52.758;55.792;2022-08-21T13:21:07;98640.47;;;27.36;40.04
65211;BME280;51794;52.758;55.792;2022-08-21T13:23:34;98653.25;;;27.31;39.57
65211;BME280;51794;52.758;55.792;2022-08-21T13:26:00;98650.84;;;27.50;38.92
65211;BME280;51794;52.758;55.792;2022-08-21T13:28:34;98641.84;;;27.29;39.40
65211;BME280;51794;52.758;55.792;2022-08-21T13:31:07;98646.72;;;27.27;39.68
65211;BME280;51794;52.758;55.792;2022-08-21T13:33:36;98654.59;;;27.28;40.02
65211;BME280;51794;52.758;55.792;2022-08-21T13:36:14;98654.34;;;27.25;39.79
65211;BME280;51794;52.758;55.792;2022-08-21T13:38:44;98663.50;;;27.03;39.94
65211;BME280;51794;52.758;55.792;2022-08-21T13:43:45;98651.63;;;27.25;39.43
65211;BME280;51794;52.758;55.792;2022-08-21T13:46:13;98633.38;;;27.25;39.53
65211;BME280;51794;52.758;55.792;2022-08-21T13:48:41;98651.38;;;27.36;39.43
65211;BME280;51794;52.758;55.792;2022-08-21T13:51:09;98642.25;;;26.95;40.06
65211;BME280;51794;52.758;55.792;2022-08-21T13:56:25;98649.03;;;26.87;40.78
65211;BME280;51794;52.758;55.792;2022-08-21T13:58:53;98649.84;;;26.88;40.32
65211;BME280;51794;52.758;55.792;2022-08-21T14:01:29;98644.13;;;26.89;40.53
65211;BME280;51794;52.758;55.792;2022-08-21T14:04:24;98642.22;;;26.85;40.85
65211;BME280;51794;52.758;55.792;2022-08-21T14:06:48;98658.22;;;26.76;40.73
65211;BME280;51794;52.758;55.792;2022-08-21T14:09:33;98659.59;;;26.79;40.81
65211;BME280;51794;52.758;55.792;2022-08-21T14:12:04;98660.91;;;26.71;40.78
65211;BME280;51794;52.758;55.792;2022-08-21T14:14:39;98635.91;;;26.69;41.19